Terminal Aerodrome Forecast
Issued by NWS

Home | Current Version | Previous Version | Graphics & Text | Print | Product List | Glossary On
Versions: 1 2 3 4 5 6 7 8 9 10 11 12 13 14 15 16
000
FTUS43 KGRB 261100
TAFATW
TAF
KATW 261129Z 2612/2712 30012G17KT P6SM OVC035
     FM261500 32013G19KT P6SM BKN035
     FM270200 35010G17KT P6SM SCT040=

USA.gov is the U.S. government's official web portal to all federal, state and local government web resources and services.